Time;durP1;ratioP1;P1;durP2;ratioP2;P2;SDS_P1;SDS_P2;PMS_P1;PMS_P2;Temp;Humidity;BMP_temperature;BMP_pressure;BME280_temperature;BME280_humidity;BME280_pressure;Samples;Min_cycle;Max_cycle;Signal;HPM_P1;HPM_P2
2023/09/20 00:01:29;;;;;;;3.97;1.15;;;19.70;99.90;;;;;;4248794;27;20556;-51
2023/09/20 00:03:31;;;;;;;3.67;1.00;;;19.70;99.90;;;;;;4249141;27;20047;-51
2023/09/20 00:05:34;;;;;;;3.40;1.08;;;19.70;99.90;;;;;;4247828;27;20123;-52
2023/09/20 00:07:36;;;;;;;3.15;1.00;;;19.70;99.90;;;;;;4248992;27;20069;-59
2023/09/20 00:09:39;;;;;;;5.03;1.08;;;19.70;99.90;;;;;;4248968;27;20043;-52
2023/09/20 00:11:44;;;;;;;4.15;1.63;;;19.70;99.90;;;;;;4248818;27;20067;-50
2023/09/20 00:13:46;;;;;;;2.08;1.00;;;19.60;99.90;;;;;;4248392;27;20122;-52
2023/09/20 00:15:55;;;;;;;5.30;1.40;;;19.60;99.90;;;;;;4248817;27;20450;-54
2023/09/20 00:17:58;;;;;;;3.30;1.00;;;19.60;99.90;;;;;;4248429;27;20482;-52
2023/09/20 00:20:11;;;;;;;2.63;1.00;;;19.60;99.90;;;;;;4248509;27;20080;-52
2023/09/20 00:22:14;;;;;;;4.82;1.20;;;19.60;99.90;;;;;;4248661;27;20071;-52
2023/09/20 00:24:16;;;;;;;5.45;1.25;;;19.50;99.90;;;;;;4248633;27;20051;-52
2023/09/20 00:26:18;;;;;;;3.75;1.15;;;19.60;99.90;;;;;;4248798;27;20131;-50
2023/09/20 00:28:20;;;;;;;4.32;1.08;;;19.50;99.90;;;;;;4248315;27;20078;-52
2023/09/20 00:30:22;;;;;;;5.47;1.15;;;19.50;99.90;;;;;;4248722;27;20047;-51
2023/09/20 00:32:26;;;;;;;3.35;1.27;;;19.50;99.90;;;;;;4230621;28;20044;-53
2023/09/20 00:34:29;;;;;;;5.57;1.30;;;19.50;99.90;;;;;;4249664;27;20055;-52
2023/09/20 00:36:31;;;;;;;3.55;1.00;;;19.50;99.90;;;;;;4249336;27;20050;-51
2023/09/20 00:38:34;;;;;;;6.13;1.58;;;19.50;99.90;;;;;;4248835;27;20445;-57
2023/09/20 00:40:37;;;;;;;5.03;1.10;;;19.50;99.90;;;;;;4248695;27;20116;-51
2023/09/20 00:42:40;;;;;;;4.22;1.38;;;19.50;99.90;;;;;;4229836;28;20058;-51
2023/09/20 00:44:42;;;;;;;5.47;1.80;;;19.50;99.90;;;;;;4248462;27;20091;-52
2023/09/20 00:46:46;;;;;;;4.93;1.23;;;19.50;99.90;;;;;;4248356;27;20476;-51
2023/09/20 00:48:54;;;;;;;4.43;1.52;;;19.50;99.90;;;;;;4248133;27;20051;-55
2023/09/20 00:50:57;;;;;;;4.38;1.30;;;19.50;99.90;;;;;;4248243;27;20047;-51
2023/09/20 00:53:00;;;;;;;5.93;1.10;;;19.50;99.90;;;;;;4248054;27;20091;-52
2023/09/20 00:55:03;;;;;;;5.80;1.80;;;19.50;99.90;;;;;;4248130;27;20043;-51
2023/09/20 00:57:07;;;;;;;3.92;1.27;;;19.50;99.90;;;;;;4247925;27;20099;-51
2023/09/20 00:59:10;;;;;;;4.67;1.67;;;19.50;99.90;;;;;;4248044;27;20071;-55
2023/09/20 01:01:12;;;;;;;5.03;1.50;;;19.40;99.90;;;;;;4247821;27;20092;-51
2023/09/20 01:03:17;;;;;;;3.60;1.00;;;19.40;99.90;;;;;;4248005;27;20476;-52
2023/09/20 01:05:22;;;;;;;3.10;1.20;;;19.40;99.90;;;;;;4247956;27;20047;-51
2023/09/20 01:07:25;;;;;;;6.93;1.80;;;19.40;99.90;;;;;;4247829;27;20043;-51
2023/09/20 01:09:27;;;;;;;5.13;1.50;;;19.40;99.90;;;;;;4247982;27;20050;-51
2023/09/20 01:11:30;;;;;;;7.88;1.30;;;19.40;99.90;;;;;;4247378;27;20078;-51
2023/09/20 01:13:32;;;;;;;4.43;1.20;;;19.40;99.90;;;;;;4247595;27;20070;-52
2023/09/20 01:15:35;;;;;;;5.10;1.35;;;19.40;99.90;;;;;;4247977;27;20049;-52
2023/09/20 01:17:45;;;;;;;5.35;1.55;;;19.40;99.90;;;;;;4247416;27;20045;-52
2023/09/20 01:19:47;;;;;;;4.22;1.55;;;19.30;99.90;;;;;;4247664;27;20050;-51
2023/09/20 01:21:51;;;;;;;2.47;1.05;;;19.40;99.90;;;;;;4247798;27;20408;-52
2023/09/20 01:23:53;;;;;;;5.55;1.63;;;19.40;99.90;;;;;;4247872;27;20156;-51
2023/09/20 01:25:56;;;;;;;5.28;1.48;;;19.40;99.90;;;;;;4247526;27;20043;-51
2023/09/20 01:27:59;;;;;;;3.95;1.58;;;19.40;99.90;;;;;;4247641;27;20043;-51
2023/09/20 01:30:02;;;;;;;1.95;1.20;;;19.30;99.90;;;;;;4246763;27;20054;-51
2023/09/20 01:32:04;;;;;;;4.63;1.70;;;19.30;99.90;;;;;;4247741;27;20043;-52
2023/09/20 01:34:06;;;;;;;9.77;1.77;;;19.30;99.90;;;;;;4247607;27;20477;-52
2023/09/20 01:36:09;;;;;;;5.35;1.35;;;19.30;99.90;;;;;;4247928;27;20043;-51
2023/09/20 01:38:12;;;;;;;6.13;1.25;;;19.20;99.90;;;;;;4247702;27;20047;-51
2023/09/20 01:40:18;;;;;;;4.05;1.02;;;19.20;99.90;;;;;;4247393;27;20043;-51
2023/09/20 01:42:21;;;;;;;2.95;1.40;;;19.30;99.90;;;;;;4247703;27;20043;-51
2023/09/20 01:44:23;;;;;;;7.13;1.65;;;19.20;99.90;;;;;;4247375;27;20047;-53
2023/09/20 01:46:25;;;;;;;4.40;1.67;;;19.30;99.90;;;;;;4247706;27;20064;-51
2023/09/20 01:48:27;;;;;;;4.47;1.25;;;19.30;99.90;;;;;;4247312;28;20043;-52
2023/09/20 01:50:30;;;;;;;5.63;1.50;;;19.20;99.90;;;;;;4247506;28;20479;-52
2023/09/20 01:52:32;;;;;;;2.83;1.17;;;19.20;99.90;;;;;;4229257;28;20533;-52
2023/09/20 01:54:37;;;;;;;5.00;1.58;;;19.20;99.90;;;;;;4247185;28;20047;-51
2023/09/20 01:56:39;;;;;;;;;;;19.20;99.90;;;;;;4247946;28;20039;-51
2023/09/20 01:58:44;;;;;;;4.15;1.35;;;19.20;99.90;;;;;;4247531;28;19919;-51
2023/09/20 02:00:50;;;;;;;6.85;1.80;;;19.10;99.90;;;;;;4247668;28;20058;-53
2023/09/20 02:02:54;;;;;;;3.85;1.30;;;19.10;99.90;;;;;;4247383;28;20058;-51
2023/09/20 02:04:56;;;;;;;4.20;1.23;;;19.20;99.90;;;;;;4247587;28;20044;-53
2023/09/20 02:06:59;;;;;;;3.40;1.55;;;19.20;99.90;;;;;;4247540;28;20051;-51
2023/09/20 02:09:02;;;;;;;4.00;1.60;;;19.10;99.90;;;;;;4247205;28;20043;-53
2023/09/20 02:11:06;;;;;;;4.20;1.35;;;19.10;99.90;;;;;;4247458;28;20043;-56
2023/09/20 02:13:10;;;;;;;3.05;1.70;;;19.10;99.90;;;;;;4247402;28;20055;-59
2023/09/20 02:15:12;;;;;;;3.58;1.38;;;19.10;99.90;;;;;;4247543;28;20050;-51
2023/09/20 02:17:15;;;;;;;2.95;1.25;;;19.00;99.90;;;;;;4248469;28;20043;-55
2023/09/20 02:19:19;;;;;;;3.03;1.15;;;19.00;99.90;;;;;;4247657;28;20043;-56
2023/09/20 02:21:22;;;;;;;5.00;1.67;;;19.00;99.90;;;;;;4247275;28;20058;-51
2023/09/20 02:23:27;;;;;;;2.75;1.38;;;19.00;99.90;;;;;;4247218;28;20039;-52
2023/09/20 02:25:30;;;;;;;4.10;1.38;;;19.00;99.90;;;;;;4248441;28;20127;-59
2023/09/20 02:27:34;;;;;;;3.53;1.20;;;19.00;99.90;;;;;;4248347;27;20047;-53
2023/09/20 02:29:36;;;;;;;4.28;1.20;;;19.00;99.90;;;;;;4250614;27;20050;-54
2023/09/20 02:31:38;;;;;;;1.95;1.00;;;18.90;99.90;;;;;;4251051;27;20143;-59
2023/09/20 02:33:40;;;;;;;3.22;1.10;;;19.00;99.90;;;;;;4250852;27;20047;-52
2023/09/20 02:35:42;;;;;;;5.20;1.33;;;18.90;99.90;;;;;;4250746;27;20403;-52
2023/09/20 02:37:46;;;;;;;3.15;1.50;;;18.90;99.90;;;;;;4250266;27;20487;-52
2023/09/20 02:39:48;;;;;;;3.70;1.10;;;18.90;99.90;;;;;;4250173;27;20039;-51
2023/09/20 02:41:50;;;;;;;3.90;1.52;;;18.80;99.90;;;;;;4250304;27;20120;-51
2023/09/20 02:43:54;;;;;;;5.93;1.50;;;18.80;99.90;;;;;;4250162;27;20099;-52
2023/09/20 02:45:59;;;;;;;3.50;1.20;;;18.80;99.90;;;;;;4231893;28;20048;-51
2023/09/20 02:48:06;;;;;;;2.00;1.20;;;18.80;99.90;;;;;;4250208;27;20092;-51
2023/09/20 02:50:13;;;;;;;4.07;1.27;;;18.70;99.90;;;;;;4249918;27;20043;-52
2023/09/20 02:52:17;;;;;;;4.50;1.02;;;18.70;99.90;;;;;;4231753;28;20073;-52
2023/09/20 02:54:19;;;;;;;3.83;1.42;;;18.70;99.90;;;;;;4249942;27;20046;-51
2023/09/20 02:56:21;;;;;;;2.42;1.23;;;18.70;99.90;;;;;;4249950;27;20047;-51
2023/09/20 02:58:24;;;;;;;2.85;0.98;;;18.70;99.90;;;;;;4249846;27;20047;-50
2023/09/20 03:00:30;;;;;;;2.92;1.17;;;18.70;99.90;;;;;;4250255;27;20088;-51
2023/09/20 03:02:32;;;;;;;3.13;1.20;;;18.70;99.90;;;;;;4249861;27;20050;-51
2023/09/20 03:04:35;;;;;;;3.22;1.13;;;18.70;99.90;;;;;;4249734;27;20035;-51
2023/09/20 03:06:37;;;;;;;6.43;1.92;;;18.60;99.90;;;;;;4249453;27;20043;-51
2023/09/20 03:08:44;;;;;;;4.63;1.40;;;18.60;99.90;;;;;;4249701;27;20051;-51
2023/09/20 03:10:47;;;;;;;5.72;1.33;;;18.70;99.90;;;;;;4249587;27;20043;-52
2023/09/20 03:12:51;;;;;;;3.50;1.40;;;18.70;99.90;;;;;;4249584;27;20039;-52
2023/09/20 03:14:53;;;;;;;6.47;1.70;;;18.60;99.90;;;;;;4249949;27;20051;-52
2023/09/20 03:16:56;;;;;;;2.97;1.10;;;18.60;99.90;;;;;;4249717;27;20452;-51
2023/09/20 03:18:58;;;;;;;3.90;1.10;;;18.60;99.90;;;;;;4249870;27;20053;-52
2023/09/20 03:21:05;;;;;;;3.80;1.17;;;18.60;99.90;;;;;;4249445;27;20472;-53
2023/09/20 03:23:09;;;;;;;4.60;1.50;;;18.60;99.90;;;;;;4249697;27;20063;-52
2023/09/20 03:25:14;;;;;;;5.85;1.50;;;18.70;99.90;;;;;;4249939;27;20438;-52
2023/09/20 03:27:16;;;;;;;4.78;1.70;;;18.60;99.90;;;;;;4249609;27;20099;-52
2023/09/20 03:29:18;;;;;;;7.00;1.60;;;18.60;99.90;;;;;;4249449;27;20091;-52
2023/09/20 03:31:22;;;;;;;2.00;1.13;;;18.60;99.90;;;;;;4249326;27;20047;-51
2023/09/20 03:33:27;;;;;;;4.68;1.70;;;18.60;99.90;;;;;;4249457;27;20098;-51
2023/09/20 03:35:29;;;;;;;4.38;1.13;;;18.60;99.90;;;;;;4249425;27;20043;-51
2023/09/20 03:37:32;;;;;;;3.65;1.30;;;18.60;99.90;;;;;;4249589;27;20044;-51
2023/09/20 03:39:40;;;;;;;4.28;1.48;;;18.60;99.90;;;;;;4249011;27;20043;-51
2023/09/20 03:41:42;;;;;;;5.05;1.70;;;18.60;99.90;;;;;;4249368;27;20143;-51
2023/09/20 03:43:44;;;;;;;5.95;1.25;;;18.60;99.90;;;;;;4249533;27;20050;-52
2023/09/20 03:45:47;;;;;;;2.95;1.40;;;18.60;99.90;;;;;;4249592;27;20047;-60
2023/09/20 03:47:53;;;;;;;3.78;1.35;;;18.60;99.90;;;;;;4249336;27;20462;-55
2023/09/20 03:49:57;;;;;;;4.53;1.58;;;18.60;99.90;;;;;;4249034;27;20435;-52
2023/09/20 03:52:00;;;;;;;5.68;1.50;;;18.60;99.90;;;;;;4248687;27;20050;-52
2023/09/20 03:54:02;;;;;;;3.15;1.17;;;18.60;99.90;;;;;;4249342;27;20134;-52
2023/09/20 03:56:08;;;;;;;5.40;1.52;;;18.60;99.90;;;;;;4249338;27;20210;-52
2023/09/20 03:58:11;;;;;;;7.43;1.65;;;18.60;99.90;;;;;;4249357;27;20125;-59
2023/09/20 04:00:28;;;;;;;7.47;1.85;;;18.60;99.90;;;;;;4250363;27;20441;-55
2023/09/20 04:02:30;;;;;;;4.03;1.20;;;18.60;99.90;;;;;;4248924;27;20047;-53
2023/09/20 04:04:34;;;;;;;3.17;1.20;;;18.60;99.90;;;;;;4248712;27;20051;-54
2023/09/20 04:06:38;;;;;;;8.57;1.88;;;18.60;99.90;;;;;;4249063;27;20050;-54
2023/09/20 04:08:41;;;;;;;3.67;1.17;;;18.60;99.90;;;;;;4248878;27;20039;-54
2023/09/20 04:10:43;;;;;;;5.05;1.67;;;18.70;99.90;;;;;;4248850;27;20050;-53
2023/09/20 04:12:47;;;;;;;6.97;1.60;;;18.60;99.90;;;;;;4248915;27;20047;-53
2023/09/20 04:14:51;;;;;;;5.72;1.67;;;18.60;99.90;;;;;;4248757;27;20445;-52
2023/09/20 04:16:54;;;;;;;3.15;1.23;;;18.60;99.90;;;;;;4248875;27;20473;-51
2023/09/20 04:18:56;;;;;;;4.18;1.30;;;18.60;99.90;;;;;;4248811;27;20039;-52
2023/09/20 04:20:59;;;;;;;4.50;1.30;;;18.60;99.90;;;;;;4248129;27;20043;-53
2023/09/20 04:23:03;;;;;;;5.88;1.55;;;18.60;99.90;;;;;;4248744;27;20051;-54
2023/09/20 04:25:06;;;;;;;3.78;1.33;;;18.60;99.90;;;;;;4248733;27;20536;-52
2023/09/20 04:27:09;;;;;;;4.40;1.70;;;18.50;99.90;;;;;;4248543;27;20043;-54
2023/09/20 04:29:11;;;;;;;2.58;1.00;;;18.50;99.90;;;;;;4248565;27;20134;-54
2023/09/20 04:31:13;;;;;;;4.00;1.38;;;18.50;99.90;;;;;;4248498;27;20049;-54
2023/09/20 04:33:16;;;;;;;5.40;1.48;;;18.50;99.90;;;;;;4248295;27;20050;-54
2023/09/20 04:35:23;;;;;;;4.47;1.45;;;18.50;99.90;;;;;;4248158;27;20046;-54
2023/09/20 04:37:25;;;;;;;5.07;1.70;;;18.50;99.90;;;;;;4248649;27;20092;-51
2023/09/20 04:39:29;;;;;;;4.80;1.63;;;18.50;99.90;;;;;;4248514;27;20459;-54
2023/09/20 04:41:32;;;;;;;3.92;1.25;;;18.50;99.90;;;;;;4248271;27;20043;-52
2023/09/20 04:43:34;;;;;;;4.50;1.50;;;18.50;99.90;;;;;;4248588;27;20051;-54
2023/09/20 04:45:36;;;;;;;3.97;1.50;;;18.50;99.90;;;;;;4248237;27;20039;-54
2023/09/20 04:47:39;;;;;;;5.60;1.95;;;18.50;99.90;;;;;;4248088;27;20043;-54
2023/09/20 04:49:41;;;;;;;3.65;1.40;;;18.50;99.90;;;;;;4247920;27;20107;-54
2023/09/20 04:51:43;;;;;;;5.10;1.83;;;18.50;99.90;;;;;;4247722;27;20073;-55
2023/09/20 04:53:46;;;;;;;4.97;1.58;;;18.50;99.90;;;;;;4248095;27;20075;-54
2023/09/20 04:55:49;;;;;;;3.13;1.50;;;18.50;99.90;;;;;;4248434;27;20045;-54
2023/09/20 04:57:51;;;;;;;5.90;1.70;;;18.50;99.90;;;;;;4247993;27;20040;-55
2023/09/20 04:59:53;;;;;;;6.47;1.70;;;18.50;99.90;;;;;;4248383;27;20109;-55
2023/09/20 05:01:56;;;;;;;6.45;1.40;;;18.50;99.90;;;;;;4248213;27;20062;-54
2023/09/20 05:03:58;;;;;;;6.20;2.17;;;18.50;99.90;;;;;;4247779;27;20058;-56
2023/09/20 05:06:00;;;;;;;6.55;1.75;;;18.50;99.90;;;;;;4248470;27;20407;-54
2023/09/20 05:08:04;;;;;;;4.93;1.13;;;18.50;99.90;;;;;;4247499;27;20069;-55
2023/09/20 05:10:07;;;;;;;4.20;1.58;;;18.50;99.90;;;;;;4248254;27;20397;-55
2023/09/20 05:12:12;;;;;;;4.82;1.83;;;18.50;99.90;;;;;;4247991;27;20065;-54
2023/09/20 05:14:14;;;;;;;5.53;1.65;;;18.40;99.90;;;;;;4248069;27;20044;-53
2023/09/20 05:16:16;;;;;;;5.57;1.92;;;18.40;99.90;;;;;;4247924;27;20051;-54
2023/09/20 05:18:20;;;;;;;5.63;1.60;;;18.50;99.90;;;;;;4247538;27;20412;-54
2023/09/20 05:20:23;;;;;;;5.25;1.55;;;18.50;99.90;;;;;;4247886;27;20067;-54
2023/09/20 05:22:25;;;;;;;5.15;2.08;;;18.40;99.90;;;;;;4247894;27;20533;-54
2023/09/20 05:24:27;;;;;;;5.97;1.58;;;18.40;99.90;;;;;;4247844;27;20138;-55
2023/09/20 05:26:29;;;;;;;5.93;1.70;;;18.40;99.90;;;;;;4247609;27;20122;-53
2023/09/20 05:28:33;;;;;;;3.90;1.45;;;18.30;99.90;;;;;;4247732;27;20051;-54
2023/09/20 05:30:35;;;;;;;8.50;1.92;;;18.30;99.90;;;;;;4247919;27;20092;-54
2023/09/20 05:32:37;;;;;;;2.90;1.77;;;18.30;99.90;;;;;;4247148;27;20043;-55
2023/09/20 05:34:39;;;;;;;7.97;1.85;;;18.40;99.90;;;;;;4247621;27;20111;-53
2023/09/20 05:36:43;;;;;;;5.82;1.83;;;18.30;99.90;;;;;;4247591;27;20412;-53
2023/09/20 05:38:45;;;;;;;3.28;1.63;;;18.30;99.90;;;;;;4247906;27;20446;-53
2023/09/20 05:40:47;;;;;;;5.88;1.80;;;18.30;99.90;;;;;;4247652;27;20043;-54
2023/09/20 05:42:53;;;;;;;4.97;1.70;;;18.30;99.90;;;;;;4248357;27;20527;-54
2023/09/20 05:44:56;;;;;;;4.53;1.50;;;18.30;99.90;;;;;;4247842;27;20063;-53
2023/09/20 05:46:58;;;;;;;6.88;2.20;;;18.30;99.90;;;;;;4247637;28;20078;-53
2023/09/20 05:49:01;;;;;;;4.45;1.65;;;18.40;99.90;;;;;;4247403;28;20051;-53
2023/09/20 05:51:03;;;;;;;6.50;1.85;;;18.30;99.90;;;;;;4247854;28;20043;-58
2023/09/20 05:53:06;;;;;;;7.95;1.90;;;18.30;99.90;;;;;;4247958;28;20039;-58
2023/09/20 05:55:13;;;;;;;8.45;1.70;;;18.30;99.90;;;;;;4246693;28;20054;-56
2023/09/20 05:57:18;;;;;;;6.03;1.85;;;18.30;99.90;;;;;;4247566;28;20126;-53
2023/09/20 05:59:20;;;;;;;7.18;1.90;;;18.40;99.90;;;;;;4247767;28;20445;-55
2023/09/20 06:01:24;;;;;;;4.97;2.00;;;18.30;99.90;;;;;;4247127;28;20039;-53
2023/09/20 06:03:26;;;;;;;4.15;1.70;;;18.30;99.90;;;;;;4249475;27;20063;-53
2023/09/20 06:05:30;;;;;;;5.40;1.92;;;18.40;99.90;;;;;;4250806;27;20065;-54
2023/09/20 06:07:33;;;;;;;9.23;1.97;;;18.40;99.90;;;;;;4251062;27;20043;-54
2023/09/20 06:09:35;;;;;;;7.05;2.15;;;18.40;99.90;;;;;;4250933;27;20047;-54
2023/09/20 06:11:38;;;;;;;6.38;1.65;;;18.40;99.90;;;;;;4250580;27;20039;-54
2023/09/20 06:13:40;;;;;;;10.68;2.40;;;18.30;99.90;;;;;;4250530;27;20053;-54
2023/09/20 06:15:42;;;;;;;8.20;2.08;;;18.40;99.90;;;;;;4250108;27;20223;-54
2023/09/20 06:17:49;;;;;;;4.35;2.08;;;18.40;99.90;;;;;;4250685;27;20039;-54
2023/09/20 06:19:52;;;;;;;5.60;2.00;;;18.40;99.90;;;;;;4251005;27;20130;-55
2023/09/20 06:21:55;;;;;;;6.10;2.10;;;18.50;99.90;;;;;;4250630;27;20381;-54
2023/09/20 06:23:57;;;;;;;8.27;2.08;;;18.50;99.90;;;;;;4250581;27;20104;-56
2023/09/20 06:26:03;;;;;;;12.15;2.40;;;18.50;99.90;;;;;;4250779;27;20416;-52
2023/09/20 06:28:07;;;;;;;8.45;2.50;;;18.50;99.90;;;;;;4250740;27;20047;-52
2023/09/20 06:30:12;;;;;;;6.28;1.95;;;18.50;99.90;;;;;;4250065;27;20043;-52
2023/09/20 06:32:15;;;;;;;5.97;1.80;;;18.50;99.90;;;;;;4250219;27;20092;-52
2023/09/20 06:34:24;;;;;;;13.00;2.50;;;18.60;99.90;;;;;;4250185;27;20092;-51
2023/09/20 06:36:27;;;;;;;9.43;1.85;;;18.60;99.90;;;;;;4232068;28;20076;-51
2023/09/20 06:38:30;;;;;;;7.95;2.30;;;18.60;99.90;;;;;;4250368;27;20039;-52
2023/09/20 06:40:38;;;;;;;8.15;2.25;;;18.70;99.90;;;;;;4250286;27;20105;-52
2023/09/20 06:42:41;;;;;;;8.65;2.42;;;18.70;99.90;;;;;;4250522;27;20134;-51
2023/09/20 06:44:44;;;;;;;11.23;2.00;;;18.80;99.90;;;;;;4250250;27;20501;-58
2023/09/20 06:46:46;;;;;;;10.02;2.33;;;18.70;99.90;;;;;;4250272;27;20044;-52
2023/09/20 06:48:48;;;;;;;5.18;1.90;;;18.80;99.90;;;;;;4250008;27;20059;-51
2023/09/20 06:50:52;;;;;;;9.02;2.35;;;18.90;99.90;;;;;;4250114;27;20118;-50
2023/09/20 06:52:54;;;;;;;7.53;2.05;;;18.90;99.90;;;;;;4250305;27;20043;-53
2023/09/20 06:54:56;;;;;;;8.63;2.38;;;18.90;99.90;;;;;;4250281;27;20516;-54
2023/09/20 06:57:03;;;;;;;7.68;2.20;;;18.90;99.90;;;;;;4250166;27;20370;-53
2023/09/20 06:59:05;;;;;;;10.82;2.45;;;18.90;99.90;;;;;;4249442;27;20043;-52
2023/09/20 07:01:09;;;;;;;7.28;1.92;;;19.00;99.90;;;;;;4250112;27;20047;-53
2023/09/20 07:03:12;;;;;;;9.55;2.40;;;19.10;99.90;;;;;;4249997;27;20047;-53
2023/09/20 07:05:14;;;;;;;6.38;2.00;;;19.10;99.90;;;;;;4249744;27;20046;-52
2023/09/20 07:07:18;;;;;;;7.72;2.13;;;19.20;99.90;;;;;;4249912;27;20043;-53
2023/09/20 07:09:21;;;;;;;10.48;2.30;;;19.10;99.90;;;;;;4249839;27;20043;-51
2023/09/20 07:11:23;;;;;;;8.55;2.13;;;19.10;99.90;;;;;;4249799;27;20455;-53
2023/09/20 07:13:26;;;;;;;7.93;2.00;;;19.20;99.90;;;;;;4249409;27;20096;-53
2023/09/20 07:15:29;;;;;;;12.55;2.33;;;19.20;99.90;;;;;;4248885;27;20095;-53
2023/09/20 07:17:31;;;;;;;10.00;2.50;;;19.30;99.90;;;;;;4249431;27;20408;-53
2023/09/20 07:19:36;;;;;;;5.13;2.35;;;19.20;99.90;;;;;;4249520;27;20074;-53
2023/09/20 07:21:38;;;;;;;8.95;1.90;;;19.20;99.90;;;;;;4249599;27;20143;-54
2023/09/20 07:23:41;;;;;;;6.97;2.13;;;19.20;99.90;;;;;;4249577;27;20126;-54
2023/09/20 07:25:43;;;;;;;6.85;2.00;;;19.20;99.90;;;;;;4249467;27;20062;-53
2023/09/20 07:27:46;;;;;;;8.65;1.95;;;19.20;99.90;;;;;;4249133;27;20114;-54
2023/09/20 07:29:49;;;;;;;11.27;2.13;;;19.30;99.90;;;;;;4249662;27;20039;-53
2023/09/20 07:31:51;;;;;;;7.38;1.80;;;19.30;99.90;;;;;;4249424;27;20051;-54
2023/09/20 07:33:56;;;;;;;7.97;2.30;;;19.30;99.90;;;;;;4249643;27;20164;-53
2023/09/20 07:36:01;;;;;;;4.35;1.70;;;19.30;99.90;;;;;;4249526;27;20445;-53
2023/09/20 07:38:17;;;;;;;12.23;2.00;;;19.30;99.90;;;;;;4249531;27;20134;-53
2023/09/20 07:40:21;;;;;;;9.77;2.53;;;19.20;99.90;;;;;;4249340;27;20623;-54
2023/09/20 07:42:23;;;;;;;5.47;2.17;;;19.20;99.90;;;;;;4249005;27;20081;-53
2023/09/20 07:44:30;;;;;;;6.60;2.53;;;19.20;99.90;;;;;;4249192;27;20119;-53
2023/09/20 07:46:35;;;;;;;10.27;2.50;;;19.20;99.90;;;;;;4248990;27;20039;-54
2023/09/20 07:48:44;;;;;;;5.22;1.73;;;19.20;99.90;;;;;;4249165;27;20058;-53
2023/09/20 07:50:49;;;;;;;13.88;2.83;;;19.30;99.90;;;;;;4249243;27;20506;-54
2023/09/20 07:52:51;;;;;;;8.32;2.47;;;19.30;99.90;;;;;;4249360;27;20114;-53
2023/09/20 07:54:53;;;;;;;11.38;2.47;;;19.30;99.90;;;;;;4249954;27;20487;-52
2023/09/20 07:56:57;;;;;;;9.88;2.88;;;19.30;99.90;;;;;;4249311;27;20035;-54
2023/09/20 07:59:00;;;;;;;9.23;2.53;;;19.40;99.90;;;;;;4249325;27;20096;-53
2023/09/20 08:01:10;;;;;;;9.20;2.60;;;19.30;99.90;;;;;;4249427;27;20047;-54
2023/09/20 08:03:12;;;;;;;9.02;2.70;;;19.40;99.90;;;;;;4249369;27;20085;-55
2023/09/20 08:05:15;;;;;;;7.80;2.20;;;19.40;99.90;;;;;;4247733;27;20051;-53
2023/09/20 08:07:17;;;;;;;6.78;2.08;;;19.40;99.90;;;;;;4248955;27;20476;-54
2023/09/20 08:09:20;;;;;;;5.25;2.03;;;19.50;99.90;;;;;;4246080;27;20507;-52
2023/09/20 08:11:22;;;;;;;8.38;2.33;;;19.50;99.90;;;;;;4248999;27;20468;-54
2023/09/20 08:13:26;;;;;;;11.90;2.22;;;19.50;99.90;;;;;;4249902;27;20047;-53
2023/09/20 08:15:29;;;;;;;4.75;1.92;;;19.60;99.90;;;;;;4239116;27;20126;-53
2023/09/20 08:19:53;;;;;;;4.63;2.25;;;19.60;99.90;;;;;;4245316;27;20074;-59
2023/09/20 08:21:55;;;;;;;15.40;3.38;;;19.80;99.90;;;;;;4244166;27;20469;-53
2023/09/20 09:01:44;;;;;;;6.85;2.22;;;20.60;99.90;;;;;;4230205;28;20039;-50
2023/09/20 09:03:47;;;;;;;;;;;20.60;99.90;;;;;;4230934;28;20050;-51
2023/09/20 09:05:50;;;;;;;11.43;2.33;;;20.70;99.90;;;;;;4230126;28;19974;-50
2023/09/20 09:07:52;;;;;;;8.55;2.13;;;20.70;99.90;;;;;;4230273;28;20063;-51
2023/09/20 09:09:54;;;;;;;10.73;2.40;;;20.70;99.90;;;;;;4212245;28;20044;-52
2023/09/20 09:11:59;;;;;;;20.38;2.97;;;20.80;99.90;;;;;;4231130;28;20054;-54
2023/09/20 09:14:03;;;;;;;16.80;3.45;;;20.90;99.90;;;;;;4230816;28;20055;-54
2023/09/20 09:16:07;;;;;;;7.57;2.20;;;21.00;99.90;;;;;;4230623;28;20054;-54
2023/09/20 09:18:16;;;;;;;11.77;2.85;;;21.00;99.90;;;;;;4246382;27;20075;-52
2023/09/20 09:20:23;;;;;;;22.33;3.15;;;21.10;99.90;;;;;;4229910;28;20044;-49
2023/09/20 09:22:25;;;;;;;9.32;2.50;;;21.20;99.90;;;;;;4230305;28;20545;-56
2023/09/20 09:24:27;;;;;;;10.27;2.70;;;21.40;99.90;;;;;;4229731;28;20043;-51
2023/09/20 09:26:31;;;;;;;17.95;2.67;;;21.50;99.50;;;;;;4236958;27;20071;-51
2023/09/20 09:28:36;;;;;;;13.10;2.13;;;21.60;99.20;;;;;;4246795;27;20074;-54
2023/09/20 09:30:42;;;;;;;9.93;2.50;;;21.80;99.00;;;;;;4246939;27;20104;-51
2023/09/20 09:32:47;;;;;;;8.90;2.75;;;21.80;98.30;;;;;;4246600;27;20076;-51
2023/09/20 09:34:52;;;;;;;6.07;2.10;;;21.90;98.40;;;;;;4247025;27;20047;-52
2023/09/20 09:36:54;;;;;;;5.47;1.85;;;21.80;98.10;;;;;;4246948;27;20085;-52
2023/09/20 09:39:09;;;;;;;7.72;2.28;;;21.60;98.60;;;;;;4246306;27;20479;-52
2023/09/20 09:41:40;;;;;;;9.02;2.00;;;21.70;98.30;;;;;;4246611;27;20051;-52
2023/09/20 09:43:56;;;;;;;9.82;2.55;;;21.70;98.50;;;;;;4212015;28;20052;-52
2023/09/20 09:46:06;;;;;;;7.53;2.65;;;21.70;98.60;;;;;;4246907;27;20083;-51
2023/09/20 09:48:08;;;;;;;9.77;2.63;;;21.80;98.50;;;;;;4246826;27;20088;-53
2023/09/20 09:50:13;;;;;;;9.00;2.35;;;21.80;98.80;;;;;;4246464;28;20047;-52
2023/09/20 09:52:16;;;;;;;10.13;2.60;;;21.90;98.30;;;;;;4246888;28;20107;-54
2023/09/20 09:54:20;;;;;;;3.80;1.90;;;22.00;98.20;;;;;;4246768;28;20055;-54
2023/09/20 09:56:23;;;;;;;4.20;1.77;;;22.00;97.90;;;;;;4246832;28;20412;-54
2023/09/20 09:58:25;;;;;;;8.85;2.28;;;22.10;97.50;;;;;;4246527;28;20126;-54
2023/09/20 10:00:28;;;;;;;9.15;2.17;;;22.20;97.30;;;;;;4246837;28;20043;-53
2023/09/20 10:02:31;;;;;;;7.00;1.83;;;22.20;96.90;;;;;;4228223;28;20051;-54
2023/09/20 10:04:36;;;;;;;8.32;2.42;;;22.30;96.90;;;;;;4246660;28;20466;-55
2023/09/20 10:06:50;;;;;;;7.30;2.20;;;22.30;96.60;;;;;;4246540;28;20064;-54
2023/09/20 10:08:57;;;;;;;7.03;2.55;;;22.40;96.20;;;;;;4246634;28;20039;-54
2023/09/20 10:11:01;;;;;;;5.07;2.10;;;22.30;96.40;;;;;;4234798;27;20040;-53
2023/09/20 10:13:04;;;;;;;;;;;22.40;96.40;;;;;;4230303;28;20112;-51
2023/09/20 10:15:08;;;;;;;4.03;2.00;;;22.40;96.00;;;;;;4230238;28;19941;-56
2023/09/20 10:17:15;;;;;;;6.15;2.30;;;22.40;96.00;;;;;;4231083;28;20420;-50
2023/09/20 10:19:18;;;;;;;7.07;2.45;;;22.50;95.80;;;;;;4238727;28;20046;-50
2023/09/20 10:21:26;;;;;;;3.88;2.15;;;22.60;95.70;;;;;;4229441;28;20087;-51
2023/09/20 10:23:30;;;;;;;6.35;2.63;;;22.60;95.30;;;;;;4229461;28;20079;-50
2023/09/20 10:25:34;;;;;;;8.48;2.67;;;22.60;95.40;;;;;;4229599;28;20047;-50
2023/09/20 10:27:36;;;;;;;10.98;2.60;;;22.60;95.20;;;;;;4245948;28;20047;-50
2023/09/20 10:29:39;;;;;;;9.40;2.90;;;22.40;95.00;;;;;;4234393;28;20130;-51
2023/09/20 10:31:42;;;;;;;12.75;8.98;;;22.40;94.60;;;;;;4229456;28;20055;-53
2023/09/20 10:33:47;;;;;;;19.00;4.78;;;22.40;94.70;;;;;;4229827;28;20378;-51
2023/09/20 10:35:50;;;;;;;9.13;3.15;;;22.40;94.70;;;;;;4229798;28;20397;-53
2023/09/20 10:38:20;;;;;;;13.60;5.05;;;22.50;94.40;;;;;;4229194;28;20071;-55
2023/09/20 10:40:55;;;;;;;12.90;2.70;;;22.60;94.20;;;;;;4226879;27;20058;-57
2023/09/20 10:43:00;;;;;;;4.85;2.17;;;22.60;94.20;;;;;;4248631;27;20089;-51
2023/09/20 10:45:05;;;;;;;12.88;2.97;;;22.60;93.90;;;;;;4247089;28;20499;-52
2023/09/20 10:47:09;;;;;;;13.43;2.90;;;22.60;93.70;;;;;;4247066;28;20046;-53
2023/09/20 10:49:14;;;;;;;8.48;2.20;;;22.60;93.50;;;;;;4247040;27;20055;-52
2023/09/20 10:51:48;;;;;;;11.63;3.33;;;22.70;93.10;;;;;;4249559;27;20412;-53
2023/09/20 10:53:55;;;;;;;12.38;4.85;;;22.80;92.60;;;;;;4245589;27;20047;-52
2023/09/20 10:55:59;;;;;;;17.65;3.78;;;22.80;92.50;;;;;;4249775;27;20081;-52
2023/09/20 10:58:01;;;;;;;11.85;3.45;;;22.70;91.80;;;;;;4231168;28;20084;-52
2023/09/20 11:00:09;;;;;;;31.85;4.03;;;22.60;91.50;;;;;;4249215;27;20051;-52
2023/09/20 11:02:19;;;;;;;14.45;2.90;;;22.60;91.90;;;;;;4249483;27;20492;-52
2023/09/20 11:04:26;;;;;;;7.32;1.98;;;22.60;91.90;;;;;;4249580;27;20130;-51
2023/09/20 11:06:28;;;;;;;5.68;1.98;;;22.50;92.00;;;;;;4248936;27;20043;-54
2023/09/20 11:08:30;;;;;;;5.78;1.95;;;22.60;92.20;;;;;;4249380;27;20540;-56
2023/09/20 11:10:33;;;;;;;5.18;2.30;;;22.60;92.10;;;;;;4249590;27;20047;-52
2023/09/20 11:12:43;;;;;;;6.68;2.47;;;22.60;92.20;;;;;;4249445;27;20489;-52
2023/09/20 11:14:51;;;;;;;9.93;2.33;;;22.70;92.20;;;;;;4249563;27;20124;-53
2023/09/20 11:16:56;;;;;;;15.45;3.33;;;22.70;91.90;;;;;;4249232;27;20074;-51
2023/09/20 11:18:58;;;;;;;;;;;22.80;91.90;;;;;;4244275;27;20396;-52
2023/09/20 11:21:03;;;;;;;21.90;10.68;;;22.80;91.50;;;;;;4232323;28;19920;-50
2023/09/20 11:23:09;;;;;;;9.95;3.78;;;22.80;91.60;;;;;;4237013;27;20242;-54
2023/09/20 11:25:11;;;;;;;5.65;1.83;;;22.90;91.60;;;;;;4239026;27;20123;-52